Wilton, Wisconsin
Current Conditions -  °F | °C
As of 6:15 PM on Friday 24 Oct 2014 (Local Time) from KCMY Reporting Station
Overcast Overcast  
Wind Chill: 60°   Ceiling: 1200
Heat Index: 60°   Visibility: 10mi
Dew Point: 55°   Wind: 5mph
Humidity: 84%   Direction: 230°SW
Pressure: 29.9"   Gusts: NA
Location:  43.81°N, 90.53°W
Report Text: KCMY 242315Z AUTO 23004KT 10SM OVC012 15/13 A2990 RMK AO2 T01540127
Loading
Personal Weather Stations






























Interactive Weather Map
Tropical Storm Tracking
New forecast layout! Learn more

10-Day Weather Forecast

Advertisements
Track Severe Weather on mobile